Athelstane, WI (54104)

1:54 AM CST on January 23, 2018 (GMT -0600)
Athelstane Township | | Change Station
Active Advisory: Special Statement

Elev 966 ft 45.40 °N, 88.12 °W | Updated 1 second ago

Overcast
Overcast
25.3 °F
Feels Like 25 °F
N
0.0
Wind Variable Wind from South
Gusts 0.0 mph

Today
High -- | Low -- °F
--% Chance of Precip.
Yesterday
High -- | Low -- °F
Precip. -- in
Pressure 29.62 in
Visibility 10.0 miles
Clouds Overcast 1500 ft
Windchill 25 °F
Dew Point 25 °F
Humidity 98%
Rainfall 0.00 in
Snow Depth Not available.
7:22 AM 4:46 PM
Waxing Crescent, 33% visible
METAR KIMT 230654Z AUTO 35018G26KT 10SM UP OVC015 M04/M07 A2957 RMK AO2 PK WND 36027/0644 UPE12B47 SLP031 P0000 T10391067
Pressure 29.62 in
Visibility 10.0 miles
Clouds Overcast 1500 ft
Windchill 25 °F
Dew Point 25 °F
Humidity 98%
Rainfall 0.00 in
Snow Depth Not available.
7:22 AM 4:46 PM
Waxing Crescent, 33% visible
METAR KIMT 230654Z AUTO 35018G26KT 10SM UP OVC015 M04/M07 A2957 RMK AO2 PK WND 36027/0644 UPE12B47 SLP031 P0000 T10391067

Get Your Daily Forecast Email!

Thanks for signing up!

Be on the lookout for a verification email in your inbox.

You'll start receiving severe weather alerts in your inbox..

×

10-Day Weather Forecast

Almanac

Astronomy

Jan. 23, 2018 Rise Set
Actual Time
Civil Twilight
Nautical Twilight
Astronomical Twilight
Moon
Length of Visible Light
Length of Day
Tomorrow will be .
, % of the Moon is Illuminated

Today's Extremes

State Highs State Lows

Community

WunderPhotos

Category 6

Welcome to Category 6. This is the collective home for Weather Underground's featured writeups by Dr. Jeff Masters (right), Bob Henson (left), Chris Burt, and other regular contributors.

Nearby

Air Quality

  Air Quality AQ Index Pollutant
Not available.

Snow Depth

Station Depth Elevation

Earthquake Activity

City Distance Mag. Time & Date
Minimum magnitude displayed is 2.5.

Coastal Water Temperatures

Place Temperature

Stations

Nearby Weather Stations

Station Location Temp. Windchill Dew Point Humidity Wind Precip. Elev Updated Type
                   

Watches & Warnings

Special Statement
Issued: 1:48 AM CST Jan. 23, 2018 – National Weather Service

... Light snow and freezing drizzle expected early this morning...

light snow and patchy freezing drizzle will continue across
Oconto and Marinette counties this morning as a band of
precipitation moves through the area. Additional accumulations of
less than an inch are expected this morning.

Motorists should use caution during the morning commute as
untreated roadways will be remain hazardous.